createdAt,value
2019-02-10T00:06:13.564Z,4.63
2019-02-10T00:12:21.810Z,4.55
2019-02-10T00:15:11.537Z,4.55
2019-02-10T00:18:01.447Z,4.62
2019-02-10T00:20:51.159Z,4.60
2019-02-10T00:23:40.881Z,4.66
2019-02-10T00:26:31.069Z,4.54
2019-02-10T00:29:20.765Z,4.52
2019-02-10T00:32:10.670Z,4.53
2019-02-10T00:35:00.413Z,4.55
2019-02-10T00:37:50.152Z,4.47
2019-02-10T00:40:39.315Z,4.58
2019-02-10T00:43:29.097Z,4.49
2019-02-10T00:46:19.179Z,4.49
2019-02-10T00:49:08.253Z,4.56
2019-02-10T00:51:56.933Z,4.51
2019-02-10T00:54:47.098Z,4.50
2019-02-10T00:57:37.237Z,4.55
2019-02-10T01:00:27.117Z,4.53
2019-02-10T01:03:16.912Z,4.52
2019-02-10T01:06:06.687Z,4.42
2019-02-10T01:08:56.555Z,4.36
2019-02-10T01:11:46.882Z,4.34
2019-02-10T01:14:56.100Z,4.38
2019-02-10T01:17:45.610Z,4.17
2019-02-10T01:20:35.593Z,4.15
2019-02-10T01:23:25.575Z,4.09
2019-02-10T01:26:15.356Z,4.06
2019-02-10T01:29:05.644Z,4.01
2019-02-10T01:32:15.261Z,3.96
2019-02-10T01:35:05.598Z,3.87
2019-02-10T01:37:55.292Z,3.95
2019-02-10T01:40:45.548Z,3.83
2019-02-10T01:43:35.107Z,3.67
2019-02-10T01:46:25.205Z,3.65
2019-02-10T01:49:15.498Z,3.62
2019-02-10T01:52:05.056Z,3.62
2019-02-10T01:54:54.564Z,3.49
2019-02-10T01:57:44.086Z,3.50
2019-02-10T02:00:34.485Z,3.56
2019-02-10T02:03:24.155Z,3.52
2019-02-10T02:06:14.186Z,3.49
2019-02-10T02:12:32.927Z,3.44
2019-02-10T02:15:22.946Z,3.26
2019-02-10T02:21:23.315Z,3.06
2019-02-10T02:24:13.245Z,2.94
2019-02-10T02:27:03.013Z,2.99
2019-02-10T02:30:12.704Z,2.99
2019-02-10T02:33:03.513Z,2.99
2019-02-10T02:36:12.163Z,2.99
2019-02-10T02:39:01.598Z,2.99
2019-02-10T02:42:10.838Z,2.85
2019-02-10T02:45:01.356Z,2.85
2019-02-10T02:48:10.002Z,2.83
2019-02-10T02:51:19.007Z,2.88
2019-02-10T02:54:08.873Z,2.88
2019-02-10T02:57:18.119Z,2.91
2019-02-10T03:00:08.424Z,2.91
2019-02-10T03:02:58.546Z,2.75
2019-02-10T03:05:48.325Z,2.78
2019-02-10T03:08:57.057Z,2.81
2019-02-10T03:11:46.890Z,2.81
2019-02-10T03:14:36.582Z,3.03
2019-02-10T03:17:45.496Z,3.11
2019-02-10T03:20:35.725Z,3.11
2019-02-10T03:23:37.527Z,3.05
2019-02-10T03:26:27.357Z,3.05
2019-02-10T03:29:15.933Z,3.07
2019-02-10T03:32:05.836Z,3.03
2019-02-10T03:34:55.255Z,3.08
2019-02-10T03:37:45.609Z,3.15
2019-02-10T03:40:54.255Z,3.17
2019-02-10T03:43:44.234Z,3.17
2019-02-10T03:46:33.749Z,3.22
2019-02-10T03:49:23.891Z,3.09
2019-02-10T03:52:13.666Z,3.16
2019-02-10T03:55:22.491Z,3.08
2019-02-10T03:58:12.256Z,3.10
2019-02-10T04:01:02.295Z,3.08
2019-02-10T04:03:52.353Z,3.17
2019-02-10T04:06:43.127Z,3.17
2019-02-10T04:09:32.876Z,3.14
2019-02-10T04:12:22.641Z,3.09
2019-02-10T04:15:12.550Z,3.14
2019-02-10T04:21:18.355Z,3.22
2019-02-10T04:24:07.825Z,3.16
2019-02-10T04:26:57.632Z,3.17
2019-02-10T04:29:47.351Z,3.05
2019-02-10T04:32:37.660Z,3.06
2019-02-10T04:35:27.695Z,3.17
2019-02-10T04:38:16.637Z,3.23
2019-02-10T04:41:25.286Z,3.21
2019-02-10T04:44:14.718Z,3.21
2019-02-10T04:47:04.238Z,3.18
2019-02-10T04:49:54.290Z,2.97
2019-02-10T04:52:44.328Z,2.75
2019-02-10T04:55:33.994Z,2.86
2019-02-10T04:58:23.422Z,2.77
2019-02-10T05:01:13.034Z,2.85
2019-02-10T05:04:02.979Z,2.85
2019-02-10T05:06:53.025Z,2.85
2019-02-10T05:10:02.214Z,2.86
2019-02-10T05:12:51.985Z,2.86
2019-02-10T05:15:41.741Z,2.95
2019-02-10T05:18:31.176Z,2.84
2019-02-10T05:21:21.042Z,2.88
2019-02-10T05:24:10.971Z,2.76
2019-02-10T05:27:00.817Z,2.72
2019-02-10T05:29:51.425Z,2.86
2019-02-10T05:32:41.132Z,2.88
2019-02-10T05:35:49.770Z,2.86
2019-02-10T05:38:39.215Z,2.86
2019-02-10T05:41:29.265Z,2.71
2019-02-10T05:44:19.399Z,2.76
2019-02-10T05:47:09.072Z,2.80
2019-02-10T05:49:58.522Z,2.83
2019-02-10T05:52:48.485Z,2.85
2019-02-10T05:55:38.445Z,2.96
2019-02-10T05:58:28.251Z,3.06
2019-02-10T06:01:56.036Z,3.16
2019-02-10T06:04:46.101Z,3.25
2019-02-10T06:07:36.138Z,3.20
2019-02-10T06:10:26.215Z,2.95
2019-02-10T06:13:16.260Z,2.80
2019-02-10T06:16:05.744Z,2.98
2019-02-10T06:18:55.183Z,2.80
2019-02-10T06:21:44.604Z,2.83
2019-02-10T06:24:34.671Z,2.80
2019-02-10T06:27:24.760Z,2.72
2019-02-10T06:30:14.521Z,2.76
2019-02-10T06:33:04.379Z,2.70
2019-02-10T06:35:54.611Z,2.52
2019-02-10T06:38:44.597Z,2.53
2019-02-10T06:41:34.677Z,2.37
2019-02-10T06:44:43.480Z,2.39
2019-02-10T06:47:33.176Z,2.30
2019-02-10T06:50:22.871Z,2.39
2019-02-10T06:53:12.586Z,2.15
2019-02-10T06:56:02.990Z,2.15
2019-02-10T07:03:04.211Z,2.18
2019-02-10T07:06:13.270Z,2.20
2019-02-10T07:12:51.815Z,2.31
2019-02-10T07:16:19.601Z,2.36
2019-02-10T07:19:47.902Z,2.36
2019-02-10T07:23:15.981Z,2.52
2019-02-10T07:26:46.069Z,2.76
2019-02-10T07:30:13.940Z,2.94
2019-02-10T07:33:27.317Z,2.84
2019-02-10T07:36:55.346Z,2.87
2019-02-10T07:40:11.157Z,2.95
2019-02-10T07:43:39.184Z,3.09
2019-02-10T07:46:37.976Z,3.23
2019-02-10T07:50:05.761Z,3.32
2019-02-10T07:53:25.581Z,3.36
2019-02-10T07:56:53.924Z,3.44
2019-02-10T08:00:09.410Z,3.65
2019-02-10T08:03:31.924Z,3.83
2019-02-10T08:06:45.172Z,4.11
2019-02-10T08:10:12.997Z,4.53
2019-02-10T08:13:25.884Z,4.99
2019-02-10T08:16:41.264Z,5.28
2019-02-10T08:20:03.613Z,5.50
2019-02-10T08:23:15.502Z,5.86
2019-02-10T08:26:43.371Z,6.18
2019-02-10T08:29:55.395Z,6.17
2019-02-10T08:36:32.592Z,6.23
2019-02-10T08:40:00.383Z,6.41
2019-02-10T08:43:28.415Z,6.64
2019-02-10T08:46:56.209Z,6.70
2019-02-10T08:50:24.031Z,6.62
2019-02-10T08:53:34.744Z,7.00
2019-02-10T08:56:24.977Z,7.07
2019-02-10T08:59:14.933Z,7.31
2019-02-10T09:02:04.639Z,7.54
2019-02-10T09:04:54.489Z,7.43
2019-02-10T09:07:44.721Z,7.28
2019-02-10T09:10:34.546Z,7.28
2019-02-10T09:13:24.956Z,7.16
2019-02-10T09:16:14.818Z,7.06
2019-02-10T09:22:19.682Z,6.93
2019-02-10T09:25:10.180Z,7.01
2019-02-10T09:27:59.782Z,6.96
2019-02-10T09:30:49.979Z,7.00
2019-02-10T09:33:40.138Z,6.93
2019-02-10T09:39:39.366Z,6.83
2019-02-10T09:42:28.788Z,6.85
2019-02-10T09:45:18.586Z,6.76
2019-02-10T09:48:08.019Z,6.74
2019-02-10T09:50:57.787Z,6.76
2019-02-10T09:53:47.563Z,6.78
2019-02-10T09:56:37.229Z,7.00
2019-02-10T09:59:27.110Z,7.14
2019-02-10T10:02:17.610Z,7.17
2019-02-10T10:05:08.374Z,7.11
2019-02-10T10:07:58.134Z,7.08
2019-02-10T10:10:48.170Z,7.29
2019-02-10T10:13:37.898Z,7.72
2019-02-10T10:16:27.390Z,7.91
2019-02-10T10:19:17.521Z,8.06
2019-02-10T10:22:07.859Z,8.28
2019-02-10T10:24:58.005Z,8.71
2019-02-10T10:27:48.015Z,8.68
2019-02-10T10:30:37.867Z,9.00
2019-02-10T10:33:27.807Z,8.99
2019-02-10T10:36:17.877Z,9.13
2019-02-10T10:39:08.082Z,8.97
2019-02-10T10:41:58.522Z,8.94
2019-02-10T10:45:29.597Z,8.99
2019-02-10T10:48:38.646Z,8.87
2019-02-10T10:51:28.152Z,8.77
2019-02-10T10:54:18.683Z,8.74
2019-02-10T10:57:08.206Z,8.86
2019-02-10T10:59:57.917Z,8.94
2019-02-10T11:02:47.919Z,9.15
2019-02-10T11:05:37.937Z,9.42
2019-02-10T11:08:27.791Z,9.69
2019-02-10T11:11:18.168Z,9.80
2019-02-10T11:14:09.993Z,9.88
2019-02-10T11:19:57.076Z,10.44
2019-02-10T11:22:46.939Z,10.44
2019-02-10T11:25:37.207Z,10.81
2019-02-10T11:28:27.284Z,10.95
2019-02-10T11:31:17.587Z,11.02
2019-02-10T11:34:07.019Z,10.92
2019-02-10T11:36:57.056Z,10.99
2019-02-10T11:39:47.135Z,11.15
2019-02-10T11:43:17.106Z,11.23
2019-02-10T11:46:06.659Z,11.35
2019-02-10T11:48:56.526Z,11.56
2019-02-10T11:52:05.438Z,11.67
2019-02-10T11:54:55.233Z,12.07
2019-02-10T11:57:45.371Z,12.42
2019-02-10T12:00:35.450Z,12.70
2019-02-10T12:06:33.769Z,12.28
2019-02-10T12:09:23.789Z,12.35
2019-02-10T12:12:13.497Z,12.10
2019-02-10T12:15:03.268Z,11.97
2019-02-10T12:17:54.002Z,12.05
2019-02-10T12:20:44.757Z,12.13
2019-02-10T12:23:34.205Z,12.06
2019-02-10T12:26:24.159Z,11.97
2019-02-10T12:29:14.098Z,11.92
2019-02-10T12:32:04.084Z,11.85
2019-02-10T12:34:53.870Z,11.81
2019-02-10T12:37:44.636Z,11.97
2019-02-10T12:40:34.644Z,11.80
2019-02-10T12:43:24.934Z,11.85
2019-02-10T12:46:14.696Z,12.34
2019-02-10T12:49:05.190Z,12.52
2019-02-10T12:52:14.255Z,12.97
2019-02-10T12:55:05.070Z,12.98
2019-02-10T12:57:57.136Z,12.94
2019-02-10T13:00:46.250Z,12.78
2019-02-10T13:03:36.034Z,12.76
2019-02-10T13:06:25.993Z,12.82
2019-02-10T13:09:19.110Z,13.73
2019-02-10T13:12:08.949Z,14.62
2019-02-10T13:14:58.570Z,14.90
2019-02-10T13:17:48.847Z,15.20
2019-02-10T13:20:39.041Z,14.85
2019-02-10T13:23:28.738Z,14.95
2019-02-10T13:26:18.213Z,15.00
2019-02-10T13:29:08.251Z,15.56
2019-02-10T13:31:58.027Z,16.09
2019-02-10T13:34:47.849Z,15.98
2019-02-10T13:37:37.612Z,16.26
2019-02-10T13:40:46.787Z,16.16
2019-02-10T13:43:36.220Z,16.29
2019-02-10T13:46:27.431Z,16.10
2019-02-10T13:49:17.630Z,16.03
2019-02-10T13:52:06.709Z,15.43
2019-02-10T13:54:57.149Z,15.40
2019-02-10T13:57:46.569Z,15.49
2019-02-10T14:00:36.068Z,15.45
2019-02-10T14:03:25.865Z,15.68
2019-02-10T14:06:16.005Z,15.56
2019-02-10T14:09:45.381Z,15.34
2019-02-10T14:15:51.212Z,14.12
2019-02-10T14:18:41.261Z,13.83
2019-02-10T14:21:31.289Z,13.52
2019-02-10T14:24:20.789Z,13.53
2019-02-10T14:27:10.621Z,13.55
2019-02-10T14:30:01.258Z,13.79
2019-02-10T14:32:50.708Z,13.30
2019-02-10T14:35:40.859Z,12.61
2019-02-10T14:38:36.287Z,12.61
2019-02-10T14:41:22.664Z,12.53
2019-02-10T14:44:12.960Z,12.45
2019-02-10T14:47:02.517Z,12.40
2019-02-10T14:49:51.965Z,12.42
2019-02-10T14:52:41.927Z,12.44
2019-02-10T14:55:32.378Z,12.44
2019-02-10T14:58:22.578Z,12.46
2019-02-10T15:01:12.382Z,12.30
2019-02-10T15:04:22.165Z,12.40
2019-02-10T15:07:12.290Z,12.33
2019-02-10T15:10:01.730Z,12.25
2019-02-10T15:13:31.108Z,12.17
2019-02-10T15:16:20.947Z,12.10
2019-02-10T15:19:10.617Z,11.86
2019-02-10T15:22:00.291Z,11.71
2019-02-10T15:24:50.378Z,11.78
2019-02-10T15:27:39.990Z,11.68
2019-02-10T15:30:32.002Z,11.68
2019-02-10T15:33:21.795Z,11.65
2019-02-10T15:36:11.908Z,11.71
2019-02-10T15:39:01.468Z,11.67
2019-02-10T15:42:10.366Z,11.57
2019-02-10T15:45:00.040Z,11.41
2019-02-10T15:47:49.771Z,10.94
2019-02-10T15:50:39.619Z,10.89
2019-02-10T15:53:29.498Z,10.86
2019-02-10T15:56:19.349Z,10.89
2019-02-10T15:59:09.400Z,10.95
2019-02-10T16:01:59.753Z,11.08
2019-02-10T16:04:49.847Z,11.04
2019-02-10T16:10:57.744Z,11.08
2019-02-10T16:13:56.132Z,10.92
2019-02-10T16:16:34.001Z,10.85
2019-02-10T16:19:27.614Z,10.69
2019-02-10T16:22:17.136Z,10.50
2019-02-10T16:25:25.720Z,10.34
2019-02-10T16:28:15.404Z,10.15
2019-02-10T16:31:05.367Z,9.94
2019-02-10T16:33:56.121Z,9.83
2019-02-10T16:36:46.256Z,9.70
2019-02-10T16:39:37.005Z,9.54
2019-02-10T16:42:27.151Z,9.30
2019-02-10T16:45:17.153Z,9.24
2019-02-10T16:48:07.534Z,9.06
2019-02-10T16:50:58.657Z,8.98
2019-02-10T16:53:46.793Z,8.91
2019-02-10T16:56:37.084Z,8.79
2019-02-10T16:59:26.786Z,8.78
2019-02-10T17:02:35.943Z,8.83
2019-02-10T17:05:25.730Z,8.81
2019-02-10T17:08:15.732Z,9.08
2019-02-10T17:11:05.612Z,9.49
2019-02-10T17:13:55.470Z,9.78
2019-02-10T17:16:45.654Z,9.98
2019-02-10T17:19:35.798Z,9.97
2019-02-10T17:22:25.235Z,10.06
2019-02-10T17:25:15.865Z,10.01
2019-02-10T17:28:05.546Z,10.03
2019-02-10T17:30:55.481Z,9.88
2019-02-10T17:33:45.295Z,9.76
2019-02-10T17:36:35.386Z,9.83
2019-02-10T17:39:27.855Z,9.85
2019-02-10T17:42:17.401Z,9.75
2019-02-10T17:45:08.647Z,9.72
2019-02-10T17:47:59.352Z,9.63
2019-02-10T17:50:49.686Z,9.69
2019-02-10T17:53:39.487Z,9.73
2019-02-10T17:56:29.623Z,9.67
2019-02-10T18:02:15.012Z,9.47
2019-02-10T18:05:04.892Z,9.33
2019-02-10T18:07:54.776Z,8.95
2019-02-10T18:10:45.183Z,8.28
2019-02-10T18:13:35.014Z,7.93
2019-02-10T18:16:44.917Z,7.49
2019-02-10T18:19:53.544Z,6.95
2019-02-10T18:22:50.836Z,6.62
2019-02-10T18:25:59.988Z,6.35
2019-02-10T18:29:08.472Z,6.18
2019-02-10T18:32:17.488Z,5.94
2019-02-10T18:35:26.158Z,5.68
2019-02-10T18:38:54.051Z,5.51
2019-02-10T18:42:03.522Z,5.29
2019-02-10T18:45:05.284Z,5.07
2019-02-10T18:48:14.503Z,4.94
2019-02-10T18:51:12.474Z,4.91
2019-02-10T18:54:22.828Z,4.91
2019-02-10T18:57:19.212Z,4.88
2019-02-10T19:00:28.890Z,4.74
2019-02-10T19:03:38.037Z,4.64
2019-02-10T19:06:35.186Z,4.61
2019-02-10T19:09:44.336Z,4.55
2019-02-10T19:12:52.909Z,4.64
2019-02-10T19:16:02.253Z,4.53
2019-02-10T19:19:11.260Z,4.53
2019-02-10T19:22:19.694Z,4.49
2019-02-10T19:25:28.204Z,4.46
2019-02-10T19:28:27.920Z,4.47
2019-02-10T19:31:36.696Z,4.42
2019-02-10T19:34:45.433Z,4.44
2019-02-10T19:37:54.099Z,4.49
2019-02-10T19:41:02.558Z,4.49
2019-02-10T19:44:11.255Z,4.46
2019-02-10T19:47:19.943Z,4.55
2019-02-10T19:50:28.620Z,4.61
2019-02-10T19:53:37.366Z,4.64
2019-02-10T19:56:45.805Z,4.67
2019-02-10T19:59:55.459Z,4.66
2019-02-10T20:03:04.132Z,4.71
2019-02-10T20:06:12.583Z,4.71
2019-02-10T20:09:13.255Z,4.73
2019-02-10T20:12:20.130Z,4.80
2019-02-10T20:15:35.207Z,4.75
2019-02-10T20:18:43.617Z,4.77
2019-02-10T20:21:52.045Z,4.77
2019-02-10T20:25:00.491Z,4.67
2019-02-10T20:28:09.023Z,4.69
2019-02-10T20:31:17.466Z,4.75
2019-02-10T20:34:26.140Z,4.76
2019-02-10T20:37:21.421Z,4.72
2019-02-10T20:40:29.868Z,4.70
2019-02-10T20:43:38.576Z,4.66
2019-02-10T20:46:49.044Z,4.63
2019-02-10T20:49:57.491Z,4.64
2019-02-10T20:53:06.199Z,4.67
2019-02-10T20:56:15.391Z,4.62
2019-02-10T20:59:24.326Z,4.67
2019-02-10T21:02:32.798Z,4.66
2019-02-10T21:05:41.704Z,4.70
2019-02-10T21:08:50.554Z,4.68
2019-02-10T21:12:00.368Z,4.64
2019-02-10T21:15:09.589Z,4.48
2019-02-10T21:18:18.707Z,4.35
2019-02-10T21:21:30.903Z,4.25
2019-02-10T21:24:39.597Z,4.19
2019-02-10T21:27:48.368Z,4.09
2019-02-10T21:30:56.859Z,4.07
2019-02-10T21:34:05.740Z,4.05
2019-02-10T21:37:14.587Z,3.99
2019-02-10T21:40:23.775Z,3.98
2019-02-10T21:43:32.226Z,4.02
2019-02-10T21:46:41.232Z,4.01
2019-02-10T21:49:51.139Z,4.06
2019-02-10T21:52:41.040Z,4.09
2019-02-10T21:55:30.799Z,4.14
2019-02-10T21:58:20.294Z,4.18
2019-02-10T22:01:10.192Z,4.16
2019-02-10T22:03:59.986Z,4.25
2019-02-10T22:06:50.250Z,4.28
2019-02-10T22:09:40.432Z,4.32
2019-02-10T22:12:36.946Z,4.29
2019-02-10T22:15:22.116Z,4.22
2019-02-10T22:18:12.321Z,4.26
2019-02-10T22:21:01.906Z,4.22
2019-02-10T22:23:51.895Z,4.19
2019-02-10T22:26:41.356Z,4.24
2019-02-10T22:29:31.294Z,4.19
2019-02-10T22:32:21.413Z,4.19
2019-02-10T22:35:10.894Z,4.23
2019-02-10T22:38:00.925Z,4.19
2019-02-10T22:40:50.720Z,4.22
2019-02-10T22:43:40.456Z,4.19
2019-02-10T22:46:30.174Z,4.34
2019-02-10T22:49:19.934Z,4.31
2019-02-10T22:52:10.138Z,4.35
2019-02-10T22:54:59.557Z,4.37
2019-02-10T22:57:49.119Z,4.43
2019-02-10T23:01:19.589Z,4.43
2019-02-10T23:04:09.353Z,4.52
2019-02-10T23:06:59.843Z,4.51
2019-02-10T23:09:49.564Z,4.53
2019-02-10T23:12:39.513Z,4.50
2019-02-10T23:15:29.011Z,4.56
2019-02-10T23:18:18.877Z,4.58
2019-02-10T23:21:09.521Z,4.57
2019-02-10T23:23:59.749Z,4.54
2019-02-10T23:26:50.251Z,4.51
2019-02-10T23:29:39.970Z,4.57
2019-02-10T23:32:30.135Z,4.54
2019-02-10T23:35:19.789Z,4.59
2019-02-10T23:38:10.079Z,4.53
2019-02-10T23:40:59.774Z,4.53
2019-02-10T23:43:49.457Z,4.52
2019-02-10T23:46:38.903Z,4.52
2019-02-10T23:49:28.637Z,4.48
2019-02-10T23:52:19.264Z,4.52
2019-02-10T23:55:08.826Z,4.52
2019-02-10T23:57:58.558Z,4.48
